Time;durP1;ratioP1;P1;durP2;ratioP2;P2;SDS_P1;SDS_P2;PMS_P1;PMS_P2;Temp;Humidity;BMP_temperature;BMP_pressure;BME280_temperature;BME280_humidity;BME280_pressure;Samples;Min_cycle;Max_cycle;Signal;HPM_P1;HPM_P2
2021/10/14 00:00:21;;;;;;;11.20;6.55;;;;;;;;;;5005015;28;20046;-76
2021/10/14 00:02:46;;;;;;;10.35;6.53;;;;;;;;;;5004084;28;20044;-76
2021/10/14 00:05:11;;;;;;;10.30;6.53;;;;;;;;;;5008385;28;20032;-77
2021/10/14 00:07:36;;;;;;;11.05;6.40;;;;;;;;;;5004989;28;20054;-76
2021/10/14 00:10:03;;;;;;;10.63;6.20;;;;;;;;;;5006155;28;20105;-76
2021/10/14 00:12:28;;;;;;;9.90;6.68;;;;;;;;;;4993357;28;20042;-76
2021/10/14 00:14:53;;;;;;;9.95;6.55;;;;;;;;;;5003172;28;20038;-76
2021/10/14 00:17:18;;;;;;;11.15;7.05;;;;;;;;;;5002744;28;20386;-76
2021/10/14 00:19:44;;;;;;;13.75;7.40;;;;;;;;;;5001185;28;20041;-76
2021/10/14 00:22:10;;;;;;;10.85;7.32;;;;;;;;;;5002446;28;20054;-77
2021/10/14 00:24:35;;;;;;;13.38;7.25;;;;;;;;;;4996158;28;20426;-77
2021/10/14 00:27:00;;;;;;;11.05;7.03;;;;;;;;;;4999670;28;20044;-77
2021/10/14 00:29:25;;;;;;;11.98;6.97;;;;;;;;;;5006518;28;20037;-76
2021/10/14 00:31:50;;;;;;;11.48;7.30;;;;;;;;;;4999367;28;20747;-76
2021/10/14 00:34:16;;;;;;;11.90;7.25;;;;;;;;;;5008322;28;20025;-76
2021/10/14 00:36:41;;;;;;;11.27;6.63;;;;;;;;;;5004774;28;20040;-78
2021/10/14 00:39:06;;;;;;;11.40;6.50;;;;;;;;;;5006957;28;20022;-75
2021/10/14 00:41:31;;;;;;;11.82;7.20;;;;;;;;;;4999589;28;20026;-75
2021/10/14 00:43:57;;;;;;;13.10;6.75;;;;;;;;;;5001521;28;20022;-76
2021/10/14 00:46:22;;;;;;;11.95;6.93;;;;;;;;;;4998580;28;20145;-75
2021/10/14 00:48:47;;;;;;;16.10;7.82;;;;;;;;;;5006252;28;20025;-77
2021/10/14 00:51:13;;;;;;;11.40;7.07;;;;;;;;;;5002325;28;20467;-75
2021/10/14 00:53:38;;;;;;;15.75;7.35;;;;;;;;;;4998485;28;20099;-76
2021/10/14 00:56:04;;;;;;;13.15;7.30;;;;;;;;;;5003888;28;20089;-76
2021/10/14 00:58:30;;;;;;;12.10;7.15;;;;;;;;;;5000799;28;20088;-75
2021/10/14 01:00:55;;;;;;;10.68;7.53;;;;;;;;;;4998928;28;20030;-77
2021/10/14 01:03:21;;;;;;;11.70;7.40;;;;;;;;;;5003441;28;20338;-75
2021/10/14 01:05:46;;;;;;;10.88;6.97;;;;;;;;;;5001139;28;20525;-76
2021/10/14 01:08:11;;;;;;;13.55;7.75;;;;;;;;;;5001959;28;20030;-77
2021/10/14 01:10:36;;;;;;;13.43;7.70;;;;;;;;;;5001870;28;20032;-76
2021/10/14 01:13:02;;;;;;;12.15;6.80;;;;;;;;;;4997757;28;20030;-76
2021/10/14 01:15:27;;;;;;;10.95;7.25;;;;;;;;;;4995896;28;20528;-76
2021/10/14 01:17:54;;;;;;;12.27;7.22;;;;;;;;;;4999517;28;20096;-76
2021/10/14 01:20:19;;;;;;;11.68;6.88;;;;;;;;;;4996842;28;20458;-77
2021/10/14 01:22:44;;;;;;;11.88;7.10;;;;;;;;;;5007545;28;20045;-76
2021/10/14 01:25:10;;;;;;;10.45;7.00;;;;;;;;;;4996883;28;20482;-76
2021/10/14 01:27:35;;;;;;;15.23;7.72;;;;;;;;;;5000953;28;20026;-76
2021/10/14 01:30:00;;;;;;;11.43;7.50;;;;;;;;;;5006378;28;20143;-76
2021/10/14 01:32:26;;;;;;;12.02;7.32;;;;;;;;;;5006130;28;20026;-77
2021/10/14 01:34:51;;;;;;;12.35;7.28;;;;;;;;;;5002684;28;20034;-76
2021/10/14 01:37:16;;;;;;;11.10;7.93;;;;;;;;;;5010849;28;20022;-76
2021/10/14 01:39:41;;;;;;;11.40;7.90;;;;;;;;;;4998733;28;20022;-75
2021/10/14 01:42:06;;;;;;;11.50;7.30;;;;;;;;;;5011100;28;20031;-76
2021/10/14 01:44:32;;;;;;;13.98;7.72;;;;;;;;;;5012267;28;20038;-75
2021/10/14 01:46:57;;;;;;;14.90;7.95;;;;;;;;;;5019434;28;20041;-77
2021/10/14 01:49:22;;;;;;;12.05;7.40;;;;;;;;;;5020565;28;20624;-76
2021/10/14 01:51:47;;;;;;;13.82;8.38;;;;;;;;;;5015137;28;20053;-76
2021/10/14 01:54:12;;;;;;;12.95;7.80;;;;;;;;;;5007877;28;20117;-75
2021/10/14 01:56:38;;;;;;;13.57;8.00;;;;;;;;;;5022128;28;20006;-76
2021/10/14 01:59:03;;;;;;;14.32;8.05;;;;;;;;;;5013856;28;20115;-76
2021/10/14 02:01:28;;;;;;;13.45;7.82;;;;;;;;;;4999850;28;20057;-76
2021/10/14 02:03:53;;;;;;;14.32;8.13;;;;;;;;;;5009880;28;20034;-76
2021/10/14 02:06:18;;;;;;;15.50;8.45;;;;;;;;;;4995833;28;20501;-76
2021/10/14 02:08:44;;;;;;;13.27;7.90;;;;;;;;;;5004053;28;20068;-74
2021/10/14 02:11:09;;;;;;;13.82;8.48;;;;;;;;;;4991062;28;20072;-75
2021/10/14 02:13:34;;;;;;;14.35;7.80;;;;;;;;;;5005340;28;20066;-76
2021/10/14 02:15:59;;;;;;;13.00;7.68;;;;;;;;;;5009250;28;20096;-77
2021/10/14 02:18:24;;;;;;;13.95;8.55;;;;;;;;;;4997135;28;20414;-76
2021/10/14 02:20:50;;;;;;;13.40;8.40;;;;;;;;;;4999908;28;20030;-76
2021/10/14 02:23:15;;;;;;;15.65;8.88;;;;;;;;;;5010539;28;20415;-78
2021/10/14 02:25:40;;;;;;;16.20;7.90;;;;;;;;;;5005110;28;20053;-74
2021/10/14 02:28:05;;;;;;;12.48;7.68;;;;;;;;;;5010164;28;20133;-77
2021/10/14 02:30:30;;;;;;;13.52;8.38;;;;;;;;;;4999719;28;20359;-76
2021/10/14 02:32:56;;;;;;;13.35;8.25;;;;;;;;;;5002706;28;20031;-77
2021/10/14 02:35:21;;;;;;;15.32;8.50;;;;;;;;;;5001946;28;20045;-76
2021/10/14 02:37:46;;;;;;;15.82;8.27;;;;;;;;;;4999096;28;20072;-77
2021/10/14 02:40:11;;;;;;;15.68;8.38;;;;;;;;;;4998054;28;20030;-76
2021/10/14 02:42:36;;;;;;;15.38;9.25;;;;;;;;;;4998283;28;20029;-76
2021/10/14 02:45:02;;;;;;;14.43;8.85;;;;;;;;;;4999877;28;20022;-75
2021/10/14 02:47:27;;;;;;;15.50;9.02;;;;;;;;;;4994689;28;20457;-75
2021/10/14 02:49:52;;;;;;;15.73;8.68;;;;;;;;;;5003910;28;20389;-76
2021/10/14 02:52:17;;;;;;;17.15;9.38;;;;;;;;;;5001261;28;20026;-75
2021/10/14 02:54:42;;;;;;;14.70;9.10;;;;;;;;;;4996896;28;20034;-77
2021/10/14 02:57:08;;;;;;;19.75;9.77;;;;;;;;;;4996405;28;20393;-76
2021/10/14 02:59:33;;;;;;;16.40;9.25;;;;;;;;;;4997672;28;20156;-76
2021/10/14 03:01:58;;;;;;;16.73;9.70;;;;;;;;;;5000413;28;20024;-75
2021/10/14 03:04:23;;;;;;;16.58;9.98;;;;;;;;;;4996403;28;20042;-75
2021/10/14 03:06:48;;;;;;;15.27;9.77;;;;;;;;;;4993617;28;20018;-76
2021/10/14 03:09:14;;;;;;;15.55;9.73;;;;;;;;;;4995029;28;20026;-75
2021/10/14 03:11:39;;;;;;;15.98;10.57;;;;;;;;;;4997263;28;20026;-75
2021/10/14 03:14:05;;;;;;;18.25;9.55;;;;;;;;;;4992891;28;20034;-76
2021/10/14 03:16:30;;;;;;;16.08;9.90;;;;;;;;;;4992120;28;20022;-76
2021/10/14 03:18:55;;;;;;;16.75;9.85;;;;;;;;;;5003844;28;20053;-78
2021/10/14 03:21:21;;;;;;;17.48;9.93;;;;;;;;;;4997422;28;20029;-76
2021/10/14 03:23:46;;;;;;;19.00;10.63;;;;;;;;;;4991784;28;20061;-75
2021/10/14 03:26:11;;;;;;;16.30;9.93;;;;;;;;;;5001662;28;20465;-76
2021/10/14 03:28:37;;;;;;;16.75;9.75;;;;;;;;;;4997076;28;20511;-75
2021/10/14 03:31:02;;;;;;;17.20;10.05;;;;;;;;;;5000354;28;20389;-75
2021/10/14 03:33:28;;;;;;;16.35;10.45;;;;;;;;;;4999424;28;20022;-75
2021/10/14 03:35:53;;;;;;;18.25;10.07;;;;;;;;;;5000244;28;20046;-75
2021/10/14 03:38:18;;;;;;;18.77;11.00;;;;;;;;;;4998657;28;20033;-75
2021/10/14 03:40:43;;;;;;;15.20;10.23;;;;;;;;;;5005913;28;20040;-76
2021/10/14 03:43:09;;;;;;;17.10;9.80;;;;;;;;;;4999467;28;20026;-77
2021/10/14 03:45:34;;;;;;;22.42;10.25;;;;;;;;;;5001828;28;20401;-76
2021/10/14 03:47:59;;;;;;;20.38;11.38;;;;;;;;;;4996217;28;20018;-76
2021/10/14 03:50:24;;;;;;;18.80;11.43;;;;;;;;;;5006182;28;20014;-75
2021/10/14 03:52:49;;;;;;;18.30;11.43;;;;;;;;;;5000585;28;20386;-76
2021/10/14 03:55:15;;;;;;;19.95;12.50;;;;;;;;;;5004202;28;20329;-77
2021/10/14 03:57:40;;;;;;;22.26;12.12;;;;;;;;;;5000136;28;20449;-75
2021/10/14 04:00:06;;;;;;;18.42;11.50;;;;;;;;;;4999846;28;20053;-76
2021/10/14 04:02:31;;;;;;;19.70;11.80;;;;;;;;;;5003308;28;20041;-77
2021/10/14 04:04:56;;;;;;;18.90;11.65;;;;;;;;;;5004636;28;20026;-76
2021/10/14 04:07:21;;;;;;;20.13;12.23;;;;;;;;;;5000235;28;20025;-75
2021/10/14 04:09:47;;;;;;;21.48;12.48;;;;;;;;;;4993189;28;20507;-77
2021/10/14 04:12:12;;;;;;;19.88;11.82;;;;;;;;;;5001884;28;20030;-77
2021/10/14 04:14:37;;;;;;;20.73;12.13;;;;;;;;;;5002537;28;20112;-78
2021/10/14 04:17:02;;;;;;;21.52;12.68;;;;;;;;;;4998799;28;20026;-76
2021/10/14 04:19:27;;;;;;;23.23;13.18;;;;;;;;;;5003495;28;20101;-78
2021/10/14 04:21:53;;;;;;;21.25;12.43;;;;;;;;;;5001627;28;20015;-77
2021/10/14 04:24:19;;;;;;;21.23;11.73;;;;;;;;;;5005520;28;20037;-76
2021/10/14 04:26:44;;;;;;;23.05;13.00;;;;;;;;;;5005096;28;20033;-76
2021/10/14 04:29:09;;;;;;;20.85;12.48;;;;;;;;;;5008221;28;20030;-77
2021/10/14 04:31:35;;;;;;;20.80;11.77;;;;;;;;;;5003798;28;20359;-76
2021/10/14 04:34:00;;;;;;;21.95;12.30;;;;;;;;;;5002158;28;20092;-77
2021/10/14 04:36:25;;;;;;;19.77;11.70;;;;;;;;;;5003272;28;20030;-76
2021/10/14 04:38:50;;;;;;;20.48;12.13;;;;;;;;;;5001537;28;20056;-77
2021/10/14 04:41:16;;;;;;;22.40;13.23;;;;;;;;;;4999569;28;20436;-75
2021/10/14 04:43:41;;;;;;;20.83;12.50;;;;;;;;;;4994401;28;20029;-76
2021/10/14 04:46:07;;;;;;;19.25;12.15;;;;;;;;;;4998242;28;20490;-75
2021/10/14 04:48:32;;;;;;;20.67;11.95;;;;;;;;;;5002001;28;20053;-76
2021/10/14 04:50:57;;;;;;;20.15;12.15;;;;;;;;;;5000794;28;20088;-75
2021/10/14 04:53:22;;;;;;;18.67;11.15;;;;;;;;;;5004067;28;20100;-74
2021/10/14 04:55:47;;;;;;;20.70;11.95;;;;;;;;;;4994135;28;20177;-75
2021/10/14 04:58:13;;;;;;;23.00;12.75;;;;;;;;;;4997711;28;20031;-75
2021/10/14 05:00:38;;;;;;;19.90;12.50;;;;;;;;;;5001025;28;20050;-74
2021/10/14 05:03:03;;;;;;;23.08;11.90;;;;;;;;;;5005276;28;20119;-75
2021/10/14 05:05:28;;;;;;;22.77;12.75;;;;;;;;;;4999664;28;20117;-75
2021/10/14 05:07:53;;;;;;;22.05;12.57;;;;;;;;;;4997347;28;20102;-76
2021/10/14 05:10:18;;;;;;;19.33;12.43;;;;;;;;;;5010179;28;20040;-76
2021/10/14 05:12:44;;;;;;;21.35;12.40;;;;;;;;;;5001931;28;20386;-76
2021/10/14 05:15:09;;;;;;;20.63;12.55;;;;;;;;;;5005218;28;20472;-74
2021/10/14 05:17:35;;;;;;;20.35;11.38;;;;;;;;;;5009248;28;20032;-75
2021/10/14 05:20:00;;;;;;;21.52;12.63;;;;;;;;;;5000759;28;20791;-75
2021/10/14 05:22:25;;;;;;;21.30;13.30;;;;;;;;;;4998160;28;20021;-75
2021/10/14 05:24:51;;;;;;;21.08;12.50;;;;;;;;;;4998834;28;20042;-76
2021/10/14 05:27:16;;;;;;;23.05;12.48;;;;;;;;;;4996407;28;20026;-76
2021/10/14 05:29:41;;;;;;;21.95;12.20;;;;;;;;;;4999435;28;20057;-77
2021/10/14 05:32:06;;;;;;;20.17;12.52;;;;;;;;;;5005608;28;20081;-75
2021/10/14 05:34:31;;;;;;;20.70;11.90;;;;;;;;;;5004647;28;20034;-76
2021/10/14 05:36:57;;;;;;;22.88;12.30;;;;;;;;;;4997183;28;20030;-75
2021/10/14 05:39:22;;;;;;;20.45;11.98;;;;;;;;;;4993653;28;20076;-75
2021/10/14 05:41:47;;;;;;;21.13;12.07;;;;;;;;;;5002701;28;20385;-76
2021/10/14 05:44:12;;;;;;;19.85;11.55;;;;;;;;;;4994861;28;20019;-77
2021/10/14 05:46:37;;;;;;;21.65;11.95;;;;;;;;;;4996576;28;20678;-76
2021/10/14 05:49:02;;;;;;;20.27;12.05;;;;;;;;;;4996492;28;20101;-77
2021/10/14 05:51:28;;;;;;;20.73;12.25;;;;;;;;;;5001040;28;20429;-75
2021/10/14 05:53:53;;;;;;;20.98;13.23;;;;;;;;;;4993428;28;20248;-75
2021/10/14 05:56:18;;;;;;;21.27;12.60;;;;;;;;;;4996224;28;20035;-75
2021/10/14 05:58:43;;;;;;;21.98;12.65;;;;;;;;;;4995601;28;20017;-75
2021/10/14 06:01:08;;;;;;;23.73;13.10;;;;;;;;;;4997450;28;20799;-75
2021/10/14 06:03:36;;;;;;;19.50;11.85;;;;;;;;;;4990712;28;20080;-75
2021/10/14 06:06:02;;;;;;;21.63;12.60;;;;;;;;;;5000882;28;20068;-75
2021/10/14 06:08:27;;;;;;;22.17;12.40;;;;;;;;;;4999537;28;20486;-75
2021/10/14 06:10:52;;;;;;;19.70;11.93;;;;;;;;;;5002611;28;20137;-75
2021/10/14 06:13:18;;;;;;;20.02;11.15;;;;;;;;;;5000457;28;20070;-75
2021/10/14 06:15:43;;;;;;;21.17;12.38;;;;;;;;;;4996565;28;20038;-76
2021/10/14 06:18:09;;;;;;;21.27;12.25;;;;;;;;;;4998405;28;20103;-69
2021/10/14 06:20:34;;;;;;;19.67;12.02;;;;;;;;;;5002939;28;20022;-71
2021/10/14 06:23:00;;;;;;;19.98;11.48;;;;;;;;;;4994000;28;20548;-73
2021/10/14 06:25:25;;;;;;;22.92;11.63;;;;;;;;;;4993867;28;20030;-72
2021/10/14 06:27:50;;;;;;;19.88;11.93;;;;;;;;;;4994922;28;20113;-72
2021/10/14 06:30:18;;;;;;;19.33;12.15;;;;;;;;;;4999187;28;20038;-71
2021/10/14 06:32:43;;;;;;;20.85;11.77;;;;;;;;;;4996890;28;20080;-72
2021/10/14 06:35:09;;;;;;;19.55;11.52;;;;;;;;;;4996034;28;20478;-72
2021/10/14 06:37:34;;;;;;;19.40;11.05;;;;;;;;;;5009480;28;20034;-71
2021/10/14 06:39:59;;;;;;;19.35;11.63;;;;;;;;;;5011027;28;20050;-71
2021/10/14 06:42:27;;;;;;;18.25;10.57;;;;;;;;;;4995455;28;20018;-71
2021/10/14 06:44:53;;;;;;;16.73;10.85;;;;;;;;;;4994256;28;20025;-71
2021/10/14 06:47:18;;;;;;;16.88;11.15;;;;;;;;;;4995689;28;20096;-71
2021/10/14 06:49:43;;;;;;;16.40;10.63;;;;;;;;;;4992346;28;20450;-72
2021/10/14 06:52:08;;;;;;;16.50;9.98;;;;;;;;;;5006540;28;20088;-72
2021/10/14 06:54:33;;;;;;;17.90;10.38;;;;;;;;;;5002004;28;20669;-70
2021/10/14 06:57:02;;;;;;;17.08;10.60;;;;;;;;;;4999060;28;20029;-71
2021/10/14 06:59:27;;;;;;;17.70;9.90;;;;;;;;;;5003465;28;20052;-71
2021/10/14 07:01:52;;;;;;;17.90;9.85;;;;;;;;;;5002466;28;20026;-71
2021/10/14 07:04:17;;;;;;;16.55;10.38;;;;;;;;;;5003350;28;20010;-71
2021/10/14 07:06:42;;;;;;;18.42;10.40;;;;;;;;;;4998298;28;20049;-71
2021/10/14 07:09:08;;;;;;;15.93;8.88;;;;;;;;;;4998112;28;20085;-73
2021/10/14 07:11:40;;;;;;;15.80;9.65;;;;;;;;;;5004786;28;20491;-71
2021/10/14 07:14:05;;;;;;;15.63;8.68;;;;;;;;;;5002735;28;20474;-72
2021/10/14 07:16:30;;;;;;;14.82;9.77;;;;;;;;;;4998027;28;20027;-72
2021/10/14 07:18:55;;;;;;;13.95;8.82;;;;;;;;;;5007513;28;20050;-72
2021/10/14 07:21:20;;;;;;;14.90;9.07;;;;;;;;;;5001221;28;20035;-71
2021/10/14 07:23:46;;;;;;;13.60;9.13;;;;;;;;;;4999636;28;20038;-71
2021/10/14 07:26:11;;;;;;;14.20;8.60;;;;;;;;;;5009366;28;20364;-72
2021/10/14 07:28:37;;;;;;;14.18;8.90;;;;;;;;;;5019189;28;20088;-73
2021/10/14 07:31:02;;;;;;;14.38;9.05;;;;;;;;;;4994460;28;20018;-72
2021/10/14 07:33:27;;;;;;;16.00;9.13;;;;;;;;;;4995748;28;20030;-72
2021/10/14 07:35:52;;;;;;;14.95;8.45;;;;;;;;;;4996616;28;20747;-72
2021/10/14 07:38:18;;;;;;;13.63;8.02;;;;;;;;;;4993863;28;20144;-71
2021/10/14 07:40:43;;;;;;;14.05;8.55;;;;;;;;;;5000966;28;20473;-72
2021/10/14 07:43:13;;;;;;;14.32;8.70;;;;;;;;;;5007287;28;20024;-72
2021/10/14 07:45:38;;;;;;;12.85;8.10;;;;;;;;;;5007174;28;20040;-73
2021/10/14 07:48:04;;;;;;;15.10;8.07;;;;;;;;;;5004251;28;20394;-73
2021/10/14 07:50:29;;;;;;;15.25;8.10;;;;;;;;;;5010195;28;20521;-72
2021/10/14 07:52:54;;;;;;;13.40;7.57;;;;;;;;;;5003339;28;20473;-72
2021/10/14 07:55:19;;;;;;;11.15;6.93;;;;;;;;;;4993307;28;20489;-73
2021/10/14 07:57:45;;;;;;;12.55;7.00;;;;;;;;;;4993407;28;20029;-73
2021/10/14 08:00:10;;;;;;;9.82;6.35;;;;;;;;;;5013741;28;20461;-73
2021/10/14 08:02:35;;;;;;;9.88;6.05;;;;;;;;;;4993320;28;20038;-72
2021/10/14 08:05:01;;;;;;;11.00;6.63;;;;;;;;;;5006194;28;20030;-72
2021/10/14 08:07:26;;;;;;;8.55;5.88;;;;;;;;;;5005956;28;20038;-72
2021/10/14 08:09:53;;;;;;;10.48;5.85;;;;;;;;;;4999376;28;20052;-73
2021/10/14 08:12:19;;;;;;;11.52;5.65;;;;;;;;;;4992398;28;20113;-71
2021/10/14 08:14:44;;;;;;;8.50;5.07;;;;;;;;;;4992454;28;20466;-72
2021/10/14 08:17:09;;;;;;;9.27;5.38;;;;;;;;;;4996477;28;20115;-72
2021/10/14 08:19:34;;;;;;;8.65;5.25;;;;;;;;;;4999020;28;20063;-72
2021/10/14 08:21:59;;;;;;;8.70;5.07;;;;;;;;;;5001809;28;20030;-72
2021/10/14 08:24:25;;;;;;;7.68;5.13;;;;;;;;;;5011153;28;20028;-73
2021/10/14 08:26:50;;;;;;;5.57;4.40;;;;;;;;;;5010821;28;20382;-72
2021/10/14 08:29:16;;;;;;;6.95;4.22;;;;;;;;;;4997770;28;20049;-72
2021/10/14 08:31:41;;;;;;;8.05;4.45;;;;;;;;;;5010823;28;20021;-72
2021/10/14 08:34:07;;;;;;;9.93;4.95;;;;;;;;;;5003115;28;20599;-72
2021/10/14 08:36:32;;;;;;;5.82;3.75;;;;;;;;;;4999958;28;20101;-72
2021/10/14 08:38:57;;;;;;;5.78;3.67;;;;;;;;;;4997327;28;20136;-65
2021/10/14 08:41:22;;;;;;;8.20;3.35;;;;;;;;;;5001841;28;20034;-62
2021/10/14 08:43:48;;;;;;;6.43;4.07;;;;;;;;;;5002277;28;20034;-62
2021/10/14 08:46:13;;;;;;;5.20;3.22;;;;;;;;;;4994335;28;20546;-62
2021/10/14 08:48:39;;;;;;;7.70;3.70;;;;;;;;;;4993033;28;20034;-63
2021/10/14 08:51:04;;;;;;;5.07;3.42;;;;;;;;;;4992049;28;20066;-63
2021/10/14 08:53:29;;;;;;;5.85;3.60;;;;;;;;;;4993250;28;20030;-62
2021/10/14 08:55:55;;;;;;;8.32;3.72;;;;;;;;;;4992125;28;20033;-63
2021/10/14 08:58:20;;;;;;;4.38;3.40;;;;;;;;;;4991998;28;20517;-62
2021/10/14 09:01:05;;;;;;;4.82;3.42;;;;;;;;;;4991992;28;20058;-62
2021/10/14 09:03:30;;;;;;;6.45;3.20;;;;;;;;;;5001407;28;20026;-63
2021/10/14 09:05:56;;;;;;;4.80;3.13;;;;;;;;;;5007258;28;20030;-63
2021/10/14 09:08:34;;;;;;;4.50;3.13;;;;;;;;;;4999764;28;20466;-62
2021/10/14 09:11:07;;;;;;;6.07;3.15;;;;;;;;;;4992268;28;20022;-62
2021/10/14 09:13:32;;;;;;;4.00;2.70;;;;;;;;;;4997821;28;20021;-62
2021/10/14 09:16:17;;;;;;;4.65;2.97;;;;;;;;;;4992328;28;20548;-64
2021/10/14 09:18:42;;;;;;;3.70;2.33;;;;;;;;;;4992149;28;20026;-63
2021/10/14 09:21:07;;;;;;;5.47;2.50;;;;;;;;;;4997240;28;20435;-63
2021/10/14 09:23:32;;;;;;;4.28;2.85;;;;;;;;;;4991639;28;20031;-63
2021/10/14 09:25:58;;;;;;;2.58;1.83;;;;;;;;;;5003360;28;20030;-63
2021/10/14 09:28:24;;;;;;;4.30;2.17;;;;;;;;;;5009964;28;20670;-63
2021/10/14 09:30:57;;;;;;;2.97;2.05;;;;;;;;;;4992634;28;20018;-62
2021/10/14 09:33:37;;;;;;;3.25;2.17;;;;;;;;;;4991694;28;20049;-63
2021/10/14 09:36:31;;;;;;;6.55;2.15;;;;;;;;;;4997496;28;20045;-62
2021/10/14 09:39:02;;;;;;;3.03;2.10;;;;;;;;;;5009979;28;20816;-63
2021/10/14 09:41:28;;;;;;;5.07;2.35;;;;;;;;;;5008583;28;20383;-63
2021/10/14 09:43:54;;;;;;;4.18;2.47;;;;;;;;;;5008474;28;20297;-62
2021/10/14 09:46:32;;;;;;;4.28;2.30;;;;;;;;;;5007994;28;20449;-63
2021/10/14 09:48:57;;;;;;;4.47;2.25;;;;;;;;;;5012341;28;20092;-63
2021/10/14 09:51:22;;;;;;;5.15;2.10;;;;;;;;;;5006641;28;20473;-63
2021/10/14 09:53:47;;;;;;;3.90;2.22;;;;;;;;;;5006891;28;20030;-62
2021/10/14 09:56:13;;;;;;;3.83;2.17;;;;;;;;;;5007898;28;20049;-62
2021/10/14 09:58:38;;;;;;;3.75;2.13;;;;;;;;;;5007695;28;20088;-63
2021/10/14 10:01:04;;;;;;;5.15;2.67;;;;;;;;;;5013458;28;20053;-62
2021/10/14 10:03:31;;;;;;;4.32;2.97;;;;;;;;;;5026597;28;20034;-62
2021/10/14 10:05:56;;;;;;;7.47;2.70;;;;;;;;;;5024501;28;20071;-63
2021/10/14 10:08:21;;;;;;;4.32;2.63;;;;;;;;;;5023842;28;20037;-63
2021/10/14 10:10:48;;;;;;;4.32;2.83;;;;;;;;;;5029977;28;20033;-63
2021/10/14 10:13:13;;;;;;;5.90;3.00;;;;;;;;;;5008132;28;20407;-62
2021/10/14 10:15:42;;;;;;;4.63;2.45;;;;;;;;;;5007158;28;20328;-62
2021/10/14 10:18:26;;;;;;;4.50;2.63;;;;;;;;;;4997615;28;20029;-62
2021/10/14 10:20:52;;;;;;;5.45;3.17;;;;;;;;;;5000287;28;20030;-63
2021/10/14 10:23:36;;;;;;;5.53;3.13;;;;;;;;;;4990771;28;20057;-63
2021/10/14 10:26:01;;;;;;;4.60;2.97;;;;;;;;;;4990889;28;20467;-62
2021/10/14 10:28:37;;;;;;;4.60;2.70;;;;;;;;;;5006774;28;20068;-62
2021/10/14 10:31:02;;;;;;;4.90;2.85;;;;;;;;;;4992856;28;20026;-63
2021/10/14 10:33:47;;;;;;;4.72;2.80;;;;;;;;;;4990486;28;20098;-62
2021/10/14 10:36:32;;;;;;;4.78;3.20;;;;;;;;;;4990417;28;20049;-61
2021/10/14 10:38:58;;;;;;;5.68;3.25;;;;;;;;;;4997142;28;20053;-63
2021/10/14 10:41:24;;;;;;;4.47;3.10;;;;;;;;;;4996525;28;20084;-62
2021/10/14 10:43:57;;;;;;;5.95;3.50;;;;;;;;;;4994942;28;20038;-62
2021/10/14 10:46:26;;;;;;;6.70;3.00;;;;;;;;;;4993865;28;20034;-62
2021/10/14 10:48:52;;;;;;;6.72;3.17;;;;;;;;;;4999517;28;20390;-63
2021/10/14 10:51:27;;;;;;;4.85;3.20;;;;;;;;;;4993715;28;20068;-62
2021/10/14 10:53:52;;;;;;;7.22;3.45;;;;;;;;;;4998679;28;20380;-62
2021/10/14 10:56:31;;;;;;;6.57;3.17;;;;;;;;;;4994670;28;20053;-62
2021/10/14 10:58:57;;;;;;;6.32;2.75;;;;;;;;;;4991452;28;20108;-63
2021/10/14 11:01:22;;;;;;;5.22;2.80;;;;;;;;;;4998580;28;20026;-64
2021/10/14 11:04:01;;;;;;;4.78;3.13;;;;;;;;;;4992252;28;20076;-62
2021/10/14 11:06:28;;;;;;;5.80;2.95;;;;;;;;;;5000155;28;20093;-62
2021/10/14 11:08:57;;;;;;;5.28;3.10;;;;;;;;;;5003257;28;20022;-62
2021/10/14 11:11:22;;;;;;;5.07;2.85;;;;;;;;;;4996961;28;20032;-62
2021/10/14 11:13:49;;;;;;;5.15;2.67;;;;;;;;;;5001884;28;20113;-62
2021/10/14 11:16:15;;;;;;;6.15;2.90;;;;;;;;;;5001024;28;20513;-64
2021/10/14 11:18:41;;;;;;;5.47;2.80;;;;;;;;;;4996077;28;20026;-63
2021/10/14 11:21:08;;;;;;;4.47;2.40;;;;;;;;;;4995159;28;20487;-63
2021/10/14 11:23:38;;;;;;;5.78;2.60;;;;;;;;;;5008368;28;20025;-63
2021/10/14 11:26:06;;;;;;;6.53;3.03;;;;;;;;;;5007522;28;20033;-62
2021/10/14 11:28:51;;;;;;;5.55;2.75;;;;;;;;;;4992123;28;20077;-62
2021/10/14 11:31:23;;;;;;;4.25;2.35;;;;;;;;;;5007731;28;20425;-63
2021/10/14 11:33:48;;;;;;;4.03;2.47;;;;;;;;;;4992273;28;20533;-62
2021/10/14 11:36:14;;;;;;;3.80;2.55;;;;;;;;;;4999176;28;20037;-63
2021/10/14 11:38:39;;;;;;;4.22;2.47;;;;;;;;;;5006984;28;20111;-63
2021/10/14 11:41:14;;;;;;;3.88;2.00;;;;;;;;;;4998907;28;20458;-63
2021/10/14 11:43:40;;;;;;;5.35;2.35;;;;;;;;;;4999333;28;20779;-62
2021/10/14 11:46:05;;;;;;;5.55;2.35;;;;;;;;;;5002647;28;20117;-63
2021/10/14 11:48:31;;;;;;;4.03;2.28;;;;;;;;;;5004733;28;20469;-62
2021/10/14 11:51:07;;;;;;;5.00;2.40;;;;;;;;;;4998349;28;20414;-62
2021/10/14 11:53:33;;;;;;;3.95;2.17;;;;;;;;;;4999538;28;20018;-63
2021/10/14 11:55:59;;;;;;;4.60;2.00;;;;;;;;;;4998798;28;20125;-63
2021/10/14 11:58:25;;;;;;;4.50;2.20;;;;;;;;;;5002314;28;20368;-62
2021/10/14 12:00:50;;;;;;;4.65;1.95;;;;;;;;;;4997498;28;20050;-62
2021/10/14 12:03:17;;;;;;;3.22;2.00;;;;;;;;;;5003411;28;20057;-62
2021/10/14 12:05:42;;;;;;;3.70;1.88;;;;;;;;;;4994885;28;20482;-62
2021/10/14 12:08:07;;;;;;;4.07;1.98;;;;;;;;;;4999727;28;20025;-62
2021/10/14 12:10:37;;;;;;;5.03;2.05;;;;;;;;;;4989170;28;20449;-63
2021/10/14 12:13:04;;;;;;;3.95;1.83;;;;;;;;;;5000124;28;20370;-63
2021/10/14 12:15:29;;;;;;;3.50;1.80;;;;;;;;;;5003868;28;20042;-62
2021/10/14 12:17:54;;;;;;;3.05;1.90;;;;;;;;;;5005714;28;20409;-61
2021/10/14 12:20:20;;;;;;;4.80;2.10;;;;;;;;;;4999644;28;20026;-63
2021/10/14 12:22:49;;;;;;;3.78;1.73;;;;;;;;;;5005022;28;20093;-62
2021/10/14 12:25:42;;;;;;;3.33;1.75;;;;;;;;;;5005502;28;20022;-63
2021/10/14 12:28:13;;;;;;;4.20;1.90;;;;;;;;;;5005765;28;20069;-63
2021/10/14 12:30:39;;;;;;;2.63;1.50;;;;;;;;;;5005119;28;20059;-63
2021/10/14 12:33:10;;;;;;;3.50;1.90;;;;;;;;;;5006527;28;20500;-66
2021/10/14 12:35:36;;;;;;;4.32;2.05;;;;;;;;;;5002718;28;20375;-63
2021/10/14 12:38:07;;;;;;;3.60;2.25;;;;;;;;;;5004918;28;20033;-63
2021/10/14 12:40:33;;;;;;;2.45;1.60;;;;;;;;;;5003914;28;20032;-62
2021/10/14 12:45:33;;;;;;;3.78;1.70;;;;;;;;;;4996847;28;20043;-63
2021/10/14 12:51:06;;;;;;;3.78;1.95;;;;;;;;;;5001032;28;20101;-63
2021/10/14 12:53:40;;;;;;;2.97;2.00;;;;;;;;;;4999889;28;20496;-62
2021/10/14 12:56:05;;;;;;;3.78;2.00;;;;;;;;;;5000459;28;20066;-63
2021/10/14 12:58:31;;;;;;;5.10;2.08;;;;;;;;;;5005796;28;20042;-64
2021/10/14 13:01:03;;;;;;;3.30;1.88;;;;;;;;;;4992881;28;20143;-63
2021/10/14 13:03:29;;;;;;;3.42;1.90;;;;;;;;;;4995060;28;20565;-62
2021/10/14 13:05:54;;;;;;;2.92;1.73;;;;;;;;;;4998966;28;20038;-63
2021/10/14 13:08:19;;;;;;;3.58;1.75;;;;;;;;;;5001376;28;20130;-63
2021/10/14 13:10:45;;;;;;;3.65;1.65;;;;;;;;;;4999187;28;20026;-63
2021/10/14 13:13:12;;;;;;;4.13;1.90;;;;;;;;;;4999438;28;20433;-63
2021/10/14 13:15:37;;;;;;;4.13;1.50;;;;;;;;;;4996230;28;20034;-64
2021/10/14 13:18:02;;;;;;;4.22;1.60;;;;;;;;;;5000682;28;20030;-64
2021/10/14 13:20:29;;;;;;;2.58;1.45;;;;;;;;;;5002602;28;20021;-64
2021/10/14 13:22:54;;;;;;;3.88;1.52;;;;;;;;;;4992362;28;20459;-63
2021/10/14 13:25:20;;;;;;;3.47;1.50;;;;;;;;;;5001685;28;20037;-63
2021/10/14 13:27:45;;;;;;;2.80;1.58;;;;;;;;;;4993434;28;20027;-64
2021/10/14 13:30:10;;;;;;;4.78;1.85;;;;;;;;;;4995193;28;20026;-65
2021/10/14 13:32:35;;;;;;;3.58;1.73;;;;;;;;;;5001036;28;20022;-65
2021/10/14 13:35:04;;;;;;;3.28;1.75;;;;;;;;;;5001765;28;20038;-64
2021/10/14 13:37:29;;;;;;;4.53;2.20;;;;;;;;;;4996828;28;20018;-63
2021/10/14 13:39:55;;;;;;;3.65;1.90;;;;;;;;;;4992948;28;20454;-63
2021/10/14 13:42:26;;;;;;;2.78;1.70;;;;;;;;;;4990928;28;20044;-62
2021/10/14 13:44:51;;;;;;;3.42;1.83;;;;;;;;;;5004327;28;20080;-62
2021/10/14 13:47:16;;;;;;;3.03;1.80;;;;;;;;;;4997334;28;20544;-62
2021/10/14 13:49:41;;;;;;;3.75;1.77;;;;;;;;;;4995281;28;20033;-63
2021/10/14 13:52:06;;;;;;;5.53;2.10;;;;;;;;;;4998422;28;20022;-63
2021/10/14 13:54:32;;;;;;;2.92;1.80;;;;;;;;;;4999552;28;20026;-64
2021/10/14 13:56:59;;;;;;;3.75;1.70;;;;;;;;;;4993581;28;20036;-63
2021/10/14 13:59:24;;;;;;;3.40;2.03;;;;;;;;;;4995734;28;20050;-62
2021/10/14 14:01:49;;;;;;;4.15;2.10;;;;;;;;;;5004805;28;20040;-63
2021/10/14 14:04:14;;;;;;;5.45;2.05;;;;;;;;;;4996011;28;20025;-65
2021/10/14 14:06:41;;;;;;;4.65;2.30;;;;;;;;;;4997267;28;20101;-62
2021/10/14 14:09:07;;;;;;;4.57;1.85;;;;;;;;;;5001994;28;20048;-63
2021/10/14 14:11:32;;;;;;;3.42;1.80;;;;;;;;;;4994315;28;20041;-63
2021/10/14 14:13:58;;;;;;;4.22;1.80;;;;;;;;;;4998219;28;20109;-62
2021/10/14 14:16:23;;;;;;;3.03;1.83;;;;;;;;;;4998205;28;20674;-62
2021/10/14 14:18:48;;;;;;;4.47;2.17;;;;;;;;;;5000628;28;20085;-62
2021/10/14 14:21:14;;;;;;;3.83;1.88;;;;;;;;;;5000970;28;20089;-62
2021/10/14 14:23:39;;;;;;;5.28;2.00;;;;;;;;;;4997105;28;20561;-62
2021/10/14 14:26:04;;;;;;;3.42;2.17;;;;;;;;;;5005852;28;20128;-62
2021/10/14 14:28:30;;;;;;;6.07;2.03;;;;;;;;;;4994910;28;20549;-63
2021/10/14 14:30:55;;;;;;;5.07;1.98;;;;;;;;;;4999871;28;20046;-63
2021/10/14 14:33:20;;;;;;;4.20;2.25;;;;;;;;;;4997587;28;20010;-62